Time;durP1;ratioP1;P1;durP2;ratioP2;P2;SDS_P1;SDS_P2;PMS_P1;PMS_P2;Temp;Humidity;BMP_temperature;BMP_pressure;BME280_temperature;BME280_humidity;BME280_pressure;Samples;Min_cycle;Max_cycle;Signal;HPM_P1;HPM_P2
2023/09/24 00:01:05;;;;;;;3.25;2.72;;;;;;;10.23;100.00;98109.53;4973634;28;20404;-82
2023/09/24 00:03:32;;;;;;;4.10;3.08;;;;;;;10.20;100.00;98112.66;4974456;28;20869;-83
2023/09/24 00:06:04;;;;;;;3.80;3.25;;;;;;;10.18;100.00;98112.06;4973667;28;20424;-83
2023/09/24 00:08:30;;;;;;;6.07;3.25;;;;;;;10.16;100.00;98112.25;4973265;28;20419;-82
2023/09/24 00:10:58;;;;;;;4.90;3.20;;;;;;;10.10;100.00;98115.84;4973982;28;20412;-83
2023/09/24 00:13:25;;;;;;;3.25;2.92;;;;;;;10.07;100.00;98119.72;4974315;28;20963;-82
2023/09/24 00:15:51;;;;;;;6.20;3.60;;;;;;;10.05;100.00;98127.13;4975748;28;20466;-83
2023/09/24 00:18:19;;;;;;;3.58;3.15;;;;;;;10.02;100.00;98132.03;4976111;28;20400;-81
2023/09/24 00:20:45;;;;;;;4.20;2.90;;;;;;;10.00;100.00;98126.97;4984639;28;20408;-81
2023/09/24 00:23:12;;;;;;;4.70;3.13;;;;;;;9.98;100.00;98125.63;4986816;28;20411;-81
2023/09/24 00:25:38;;;;;;;4.18;3.25;;;;;;;9.96;100.00;98131.13;4984846;28;20420;-81
2023/09/24 00:28:07;;;;;;;4.63;3.50;;;;;;;9.90;100.00;98134.69;4985550;28;20732;-82
2023/09/24 00:30:34;;;;;;;4.22;3.50;;;;;;;9.88;100.00;98138.59;4983666;28;20411;-81
2023/09/24 00:33:00;;;;;;;4.00;3.10;;;;;;;9.86;100.00;98135.34;4978713;28;20400;-82
2023/09/24 00:35:26;;;;;;;5.47;3.42;;;;;;;9.83;100.00;98134.00;4973642;28;20788;-82
2023/09/24 00:37:52;;;;;;;4.60;3.50;;;;;;;9.81;100.00;98138.69;4973321;28;20404;-82
2023/09/24 00:40:19;;;;;;;4.93;3.47;;;;;;;9.78;100.00;98139.13;4973428;28;20404;-83
2023/09/24 00:42:46;;;;;;;6.15;3.92;;;;;;;9.75;100.00;98136.97;4973368;28;20671;-83
2023/09/24 00:45:14;;;;;;;4.97;3.67;;;;;;;9.72;100.00;98142.69;4974170;28;20427;-82
2023/09/24 00:47:44;;;;;;;4.63;3.15;;;;;;;9.74;100.00;98150.41;4977115;28;20964;-83
2023/09/24 00:50:10;;;;;;;3.47;3.17;;;;;;;9.71;100.00;98138.44;4977192;28;20812;-83
2023/09/24 00:52:37;;;;;;;4.40;3.08;;;;;;;9.70;100.00;98137.63;4976856;28;20392;-81
2023/09/24 00:55:06;;;;;;;4.22;3.40;;;;;;;9.66;100.00;98141.75;4976452;28;20399;-83
2023/09/24 00:57:33;;;;;;;4.97;3.30;;;;;;;9.63;100.00;98144.84;4976512;28;20484;-82
2023/09/24 01:00:01;;;;;;;4.50;3.10;;;;;;;9.60;100.00;98144.50;4976266;28;20414;-83
2023/09/24 01:02:32;;;;;;;3.72;3.20;;;;;;;9.55;100.00;98131.94;4976962;28;20392;-83
2023/09/24 01:05:00;;;;;;;4.00;3.30;;;;;;;9.53;100.00;98141.97;4977974;28;20427;-82
2023/09/24 01:07:28;;;;;;;6.77;3.63;;;;;;;9.50;100.00;98144.25;4976165;28;20412;-82
2023/09/24 01:09:54;;;;;;;4.05;3.03;;;;;;;9.49;100.00;98154.00;4977153;28;20443;-82
2023/09/24 01:12:21;;;;;;;3.42;2.97;;;;;;;9.47;100.00;98156.06;4976400;28;21150;-83
2023/09/24 01:14:48;;;;;;;4.55;3.22;;;;;;;9.42;100.00;98165.69;4976849;28;20656;-82
2023/09/24 01:17:14;;;;;;;3.92;3.30;;;;;;;9.41;100.00;98170.16;4976834;28;20405;-83
2023/09/24 01:19:42;;;;;;;3.72;3.03;;;;;;;9.39;100.00;98168.81;4976525;28;20478;-83
2023/09/24 01:22:09;;;;;;;3.70;2.78;;;;;;;9.35;100.00;98173.72;4977437;28;20420;-82
2023/09/24 01:24:35;;;;;;;4.68;3.08;;;;;;;9.34;100.00;98169.47;4977887;28;20432;-83
2023/09/24 01:27:02;;;;;;;3.47;3.10;;;;;;;9.31;100.00;98159.34;4981029;28;20423;-83
2023/09/24 01:29:28;;;;;;;3.40;3.10;;;;;;;9.30;100.00;98168.31;4980040;28;20435;-83
2023/09/24 01:31:54;;;;;;;5.30;3.50;;;;;;;9.30;100.00;98161.19;4977775;28;20411;-82
2023/09/24 01:34:22;;;;;;;3.55;3.20;;;;;;;9.31;100.00;98156.72;4976846;28;20397;-81
2023/09/24 01:36:49;;;;;;;4.18;3.05;;;;;;;9.31;100.00;98167.28;4977364;28;20412;-82
2023/09/24 01:39:18;;;;;;;4.13;3.40;;;;;;;9.28;100.00;98157.94;4977801;28;20400;-83
2023/09/24 01:41:45;;;;;;;4.72;3.53;;;;;;;9.23;100.00;98162.31;4977540;28;20404;-82
2023/09/24 01:44:13;;;;;;;6.40;3.42;;;;;;;9.20;100.00;98163.53;4977994;28;20527;-83
2023/09/24 01:46:39;;;;;;;5.43;3.70;;;;;;;9.19;100.00;98155.84;4974266;28;20419;-82
2023/09/24 01:49:05;;;;;;;4.55;3.42;;;;;;;9.21;100.00;98159.06;4974819;28;20408;-81
2023/09/24 01:51:31;;;;;;;4.35;3.08;;;;;;;9.22;100.00;98160.69;4975313;28;20475;-82
2023/09/24 01:53:59;;;;;;;3.50;2.88;;;;;;;9.22;100.00;98166.78;4974946;28;20406;-81
2023/09/24 01:56:26;;;;;;;4.93;3.00;;;;;;;9.19;100.00;98164.56;4974864;28;20474;-83
2023/09/24 01:58:52;;;;;;;3.47;3.03;;;;;;;9.18;100.00;98170.88;4974473;28;20475;-81
2023/09/24 02:01:18;;;;;;;4.32;3.00;;;;;;;9.18;100.00;98170.06;4974878;28;20401;-82
2023/09/24 02:03:46;;;;;;;2.80;2.60;;;;;;;9.16;100.00;98164.22;4975153;28;20403;-83
2023/09/24 02:06:14;;;;;;;4.30;2.77;;;;;;;9.14;100.00;98167.09;4974918;28;20477;-83
2023/09/24 02:08:40;;;;;;;3.05;2.63;;;;;;;9.12;100.00;98168.31;4974536;28;20416;-82
2023/09/24 02:11:07;;;;;;;6.57;2.72;;;;;;;9.08;100.00;98164.53;4975093;28;20408;-82
2023/09/24 02:13:34;;;;;;;4.03;3.10;;;;;;;9.04;100.00;98166.78;4975519;28;20912;-81
2023/09/24 02:16:01;;;;;;;3.28;2.70;;;;;;;9.02;100.00;98168.84;4974514;28;20460;-85
2023/09/24 02:18:32;;;;;;;3.13;2.83;;;;;;;8.97;100.00;98165.25;4974375;28;20400;-82
2023/09/24 02:20:59;;;;;;;2.80;2.55;;;;;;;8.95;100.00;98170.75;4974354;28;20419;-82
2023/09/24 02:23:25;;;;;;;3.42;2.80;;;;;;;8.94;100.00;98171.81;4974037;28;20413;-82
2023/09/24 02:25:52;;;;;;;3.63;2.92;;;;;;;8.93;100.00;98178.09;4974046;28;20436;-84
2023/09/24 02:28:18;;;;;;;3.72;2.97;;;;;;;8.88;100.00;98173.47;4975203;28;20424;-82
2023/09/24 02:30:50;;;;;;;3.55;2.80;;;;;;;8.83;100.00;98178.63;4975914;28;20405;-82
2023/09/24 02:33:16;;;;;;;3.35;2.67;;;;;;;8.82;100.00;98178.81;4975750;28;20939;-82
2023/09/24 02:35:42;;;;;;;3.42;2.80;;;;;;;8.80;100.00;98181.69;4976332;28;20435;-84
2023/09/24 02:38:09;;;;;;;3.27;2.77;;;;;;;8.78;100.00;98183.75;4976111;28;20415;-82
2023/09/24 02:40:36;;;;;;;5.53;2.55;;;;;;;8.78;100.00;98185.59;4976642;28;20400;-83
2023/09/24 02:43:06;;;;;;;3.83;2.85;;;;;;;8.76;100.00;98185.00;4974820;28;20400;-82
2023/09/24 02:45:33;;;;;;;3.40;2.80;;;;;;;8.73;100.00;98186.22;4975125;28;20416;-82
2023/09/24 02:48:00;;;;;;;2.70;2.50;;;;;;;8.72;100.00;98179.31;4979085;28;20396;-84
2023/09/24 02:50:28;;;;;;;3.00;2.40;;;;;;;8.70;100.00;98184.03;4985502;28;20392;-84
2023/09/24 02:52:56;;;;;;;4.05;2.83;;;;;;;8.66;100.00;98184.69;4982987;28;20823;-83
2023/09/24 02:55:23;;;;;;;3.40;2.65;;;;;;;8.67;100.00;98184.47;4981603;28;20912;-79
2023/09/24 02:57:52;;;;;;;3.17;2.53;;;;;;;8.65;100.00;98188.34;4973990;28;20440;-82
2023/09/24 03:00:26;;;;;;;4.15;2.90;;;;;;;8.62;100.00;98184.31;4973317;28;20401;-84
2023/09/24 03:02:54;;;;;;;4.38;3.08;;;;;;;8.60;100.00;98186.38;4973531;28;20439;-83
2023/09/24 03:05:24;;;;;;;3.95;2.78;;;;;;;8.57;100.00;98188.66;4973680;28;20812;-83
2023/09/24 03:07:51;;;;;;;4.93;2.83;;;;;;;8.53;100.00;98183.81;4972070;28;20404;-84
2023/09/24 03:10:18;;;;;;;4.93;2.63;;;;;;;8.51;100.00;98188.47;4973428;28;20428;-83
2023/09/24 03:12:45;;;;;;;2.90;2.50;;;;;;;8.50;100.00;98201.88;4973055;28;20749;-84
2023/09/24 03:15:12;;;;;;;4.43;2.70;;;;;;;8.48;100.00;98199.50;4973495;28;21291;-83
2023/09/24 03:17:38;;;;;;;3.55;2.63;;;;;;;8.46;100.00;98203.34;4973453;28;20503;-82
2023/09/24 03:20:11;;;;;;;3.35;2.60;;;;;;;8.47;100.00;98205.78;4973069;28;20420;-84
2023/09/24 03:22:38;;;;;;;3.45;2.78;;;;;;;8.47;100.00;98211.06;4973849;28;20415;-82
2023/09/24 03:25:06;;;;;;;3.58;2.47;;;;;;;8.45;100.00;98210.47;4981799;28;20455;-83
2023/09/24 03:27:32;;;;;;;3.20;2.55;;;;;;;8.41;100.00;98209.31;4982508;28;20406;-83
2023/09/24 03:29:58;;;;;;;3.17;2.70;;;;;;;8.40;100.00;98220.88;4983112;28;20427;-83
2023/09/24 03:32:24;;;;;;;4.90;2.53;;;;;;;8.36;100.00;98226.78;4983488;28;20397;-83
2023/09/24 03:34:52;;;;;;;3.10;2.50;;;;;;;8.36;100.00;98224.13;4984456;28;20392;-84
2023/09/24 03:37:18;;;;;;;2.95;2.45;;;;;;;8.36;100.00;98234.69;4986044;28;20422;-83
2023/09/24 03:39:46;;;;;;;4.43;2.70;;;;;;;8.34;100.00;98236.75;4986446;28;20440;-82
2023/09/24 03:42:14;;;;;;;3.85;2.55;;;;;;;8.32;100.00;98234.31;4986460;28;20439;-84
2023/09/24 03:44:40;;;;;;;4.10;2.65;;;;;;;8.30;100.00;98243.44;4986944;28;20460;-84
2023/09/24 03:47:06;;;;;;;4.72;2.67;;;;;;;8.26;100.00;98239.63;4986807;28;20408;-83
2023/09/24 03:49:32;;;;;;;3.00;2.38;;;;;;;8.26;100.00;98235.16;4987170;28;20460;-84
2023/09/24 03:51:58;;;;;;;2.80;2.50;;;;;;;8.22;100.00;98239.25;4987838;28;20400;-84
2023/09/24 03:54:25;;;;;;;5.88;2.83;;;;;;;8.18;100.00;98237.25;4983586;28;20748;-84
2023/09/24 03:56:54;;;;;;;3.05;2.70;;;;;;;8.15;100.00;98238.47;4984332;28;20436;-83
2023/09/24 03:59:20;;;;;;;5.68;2.90;;;;;;;8.11;100.00;98248.66;4982039;28;20764;-82
2023/09/24 04:01:46;;;;;;;4.57;2.67;;;;;;;8.08;100.00;98243.81;4982432;28;20892;-83
2023/09/24 04:04:12;;;;;;;3.85;2.50;;;;;;;8.08;100.00;98250.91;4980943;28;20404;-84
2023/09/24 04:06:40;;;;;;;4.63;2.78;;;;;;;8.05;100.00;98256.59;4980027;28;20439;-83
2023/09/24 04:09:06;;;;;;;2.97;2.60;;;;;;;8.03;100.00;98262.09;4979738;28;20915;-84
2023/09/24 04:11:32;;;;;;;3.40;2.50;;;;;;;8.02;100.00;98265.75;4981056;28;20435;-82
2023/09/24 04:14:00;;;;;;;3.47;2.80;;;;;;;8.03;100.00;98270.00;4978923;28;20904;-83
2023/09/24 04:16:26;;;;;;;2.88;2.58;;;;;;;8.02;100.00;98265.75;4981436;28;20507;-83
2023/09/24 04:18:52;;;;;;;3.40;2.50;;;;;;;8.02;100.00;98273.66;4980807;28;20405;-83
2023/09/24 04:21:19;;;;;;;2.90;2.63;;;;;;;8.03;100.00;98271.84;4981111;28;20404;-82
2023/09/24 04:23:46;;;;;;;3.13;2.42;;;;;;;8.01;100.00;98284.41;4981179;28;20412;-83
2023/09/24 04:26:22;;;;;;;3.25;2.60;;;;;;;7.99;100.00;98284.63;4980669;28;20420;-84
2023/09/24 04:28:54;;;;;;;3.45;2.42;;;;;;;7.99;100.00;98289.91;4981243;28;20823;-86
2023/09/24 04:31:21;;;;;;;2.60;2.28;;;;;;;7.98;100.00;98287.47;4981144;28;20770;-84
2023/09/24 04:33:49;;;;;;;4.03;2.70;;;;;;;7.96;100.00;98289.53;4978806;28;20431;-83
2023/09/24 04:36:18;;;;;;;3.63;2.60;;;;;;;7.93;100.00;98287.31;4972722;28;20462;-82
2023/09/24 04:38:44;;;;;;;3.80;2.75;;;;;;;7.90;100.00;98293.00;4972316;28;20435;-83
2023/09/24 04:41:10;;;;;;;4.28;3.00;;;;;;;7.86;100.00;98292.63;4972041;28;20407;-82
2023/09/24 04:43:36;;;;;;;2.90;2.60;;;;;;;7.85;100.00;98296.28;4973103;28;20435;-83
2023/09/24 04:46:06;;;;;;;3.22;2.55;;;;;;;7.85;100.00;98293.63;4972437;28;20423;-83
2023/09/24 04:48:35;;;;;;;4.97;3.20;;;;;;;7.85;100.00;98298.91;4972603;28;20408;-85
2023/09/24 04:51:01;;;;;;;3.33;2.90;;;;;;;7.86;100.00;98300.53;4972482;28;20408;-83
2023/09/24 04:53:28;;;;;;;4.65;2.83;;;;;;;7.86;100.00;98302.34;4973458;28;20487;-83
2023/09/24 04:55:54;;;;;;;3.67;2.67;;;;;;;7.85;100.00;98309.44;4972734;28;20404;-84
2023/09/24 04:58:21;;;;;;;3.50;3.05;;;;;;;7.87;100.00;98307.41;4973354;28;20451;-85
2023/09/24 05:00:48;;;;;;;3.92;2.80;;;;;;;7.86;100.00;98303.16;4974096;28;20487;-84
2023/09/24 05:03:14;;;;;;;3.40;2.88;;;;;;;7.83;100.00;98306.22;4975293;28;20408;-83
2023/09/24 05:05:43;;;;;;;3.37;2.90;;;;;;;7.80;100.00;98314.56;4972239;28;20480;-83
2023/09/24 05:08:09;;;;;;;4.45;3.00;;;;;;;7.76;100.00;98311.50;4972213;28;20905;-84
2023/09/24 05:10:36;;;;;;;3.58;3.17;;;;;;;7.76;100.00;98315.97;4972388;28;20400;-84
2023/09/24 05:13:03;;;;;;;6.97;3.30;;;;;;;7.74;100.00;98313.53;4971662;28;20404;-84
2023/09/24 05:15:29;;;;;;;3.88;3.05;;;;;;;7.75;100.00;98323.06;4971612;28;20412;-83
2023/09/24 05:17:56;;;;;;;4.30;3.30;;;;;;;7.75;100.00;98324.91;4972319;28;20491;-83
2023/09/24 05:20:22;;;;;;;4.75;3.30;;;;;;;7.72;100.00;98320.06;4972721;28;20408;-83
2023/09/24 05:22:49;;;;;;;4.40;2.97;;;;;;;7.73;100.00;98326.97;4973140;28;20479;-84
2023/09/24 05:25:16;;;;;;;4.95;3.63;;;;;;;7.70;100.00;98322.91;4977590;28;20508;-82
2023/09/24 05:27:43;;;;;;;5.65;3.70;;;;;;;7.69;100.00;98328.38;4975015;28;21571;-83
2023/09/24 05:30:10;;;;;;;5.20;3.58;;;;;;;7.68;100.00;98334.66;4975413;28;20423;-84
2023/09/24 05:32:36;;;;;;;4.05;3.30;;;;;;;7.70;100.00;98336.06;4985888;28;20404;-83
2023/09/24 05:35:03;;;;;;;3.85;3.33;;;;;;;7.72;100.00;98339.31;4981086;28;20401;-84
2023/09/24 05:37:29;;;;;;;4.85;3.58;;;;;;;7.70;100.00;98330.81;4980001;28;20428;-83
2023/09/24 05:39:58;;;;;;;3.67;3.13;;;;;;;7.70;100.00;98328.16;4983143;28;20408;-83
2023/09/24 05:42:24;;;;;;;3.85;3.25;;;;;;;7.72;100.00;98333.25;4976949;28;20459;-84
2023/09/24 05:44:50;;;;;;;3.97;3.17;;;;;;;7.74;100.00;98333.84;4977214;28;20405;-82
2023/09/24 05:47:16;;;;;;;3.92;2.97;;;;;;;7.75;100.00;98338.88;4977164;28;20407;-84
2023/09/24 05:49:42;;;;;;;3.67;3.25;;;;;;;7.78;100.00;98338.47;4976825;28;20422;-84
2023/09/24 05:52:08;;;;;;;4.90;3.40;;;;;;;7.82;100.00;98338.84;4976095;28;20400;-82
2023/09/24 05:54:34;;;;;;;6.15;3.30;;;;;;;7.83;100.00;98340.47;4976001;28;20491;-84
2023/09/24 05:57:03;;;;;;;5.35;3.42;;;;;;;7.83;100.00;98345.75;4981492;28;20412;-83
2023/09/24 05:59:29;;;;;;;5.75;3.45;;;;;;;7.84;100.00;98341.28;4983980;28;20455;-82
2023/09/24 06:01:55;;;;;;;5.78;3.67;;;;;;;7.84;100.00;98339.47;4978146;28;20419;-84
2023/09/24 06:04:22;;;;;;;5.40;3.43;;;;;;;7.86;100.00;98334.78;4978279;28;20786;-79
2023/09/24 06:06:48;;;;;;;3.95;3.35;;;;;;;7.91;100.00;98336.78;4980161;28;20424;-79
2023/09/24 06:09:16;;;;;;;4.90;3.40;;;;;;;7.95;100.00;98344.09;4980177;28;20412;-81
2023/09/24 06:11:44;;;;;;;3.78;3.00;;;;;;;8.01;100.00;98345.06;4980674;28;20411;-83
2023/09/24 06:14:12;;;;;;;4.40;3.08;;;;;;;8.06;100.00;98347.88;4985931;28;20426;-82
2023/09/24 06:16:38;;;;;;;3.75;3.17;;;;;;;8.11;100.00;98348.06;4984275;28;20411;-81
2023/09/24 06:19:05;;;;;;;3.40;3.10;;;;;;;8.15;100.00;98351.88;4979869;28;20396;-82
2023/09/24 06:21:31;;;;;;;3.78;3.10;;;;;;;8.21;100.00;98356.31;4984736;28;20466;-83
2023/09/24 06:23:57;;;;;;;3.65;3.28;;;;;;;8.29;100.00;98356.06;4982126;28;20436;-82
2023/09/24 06:26:24;;;;;;;4.03;2.80;;;;;;;8.41;100.00;98358.88;4990872;28;20458;-82
2023/09/24 06:28:50;;;;;;;3.15;2.78;;;;;;;8.55;100.00;98363.03;4980084;28;20408;-80
2023/09/24 06:31:20;;;;;;;4.45;2.85;;;;;;;8.66;100.00;98359.69;4981704;28;20459;-80
2023/09/24 06:33:46;;;;;;;2.50;2.30;;;;;;;8.76;100.00;98360.03;4980761;28;20453;-81
2023/09/24 06:36:12;;;;;;;3.28;2.53;;;;;;;8.85;100.00;98360.56;4980372;28;20487;-81
2023/09/24 06:38:38;;;;;;;2.70;2.50;;;;;;;8.93;100.00;98361.09;4978283;28;20396;-84
2023/09/24 06:41:05;;;;;;;3.67;2.40;;;;;;;9.03;100.00;98360.59;4977371;28;20438;-81
2023/09/24 06:43:32;;;;;;;2.58;2.10;;;;;;;9.13;100.00;98365.38;4977857;28;20404;-80
2023/09/24 06:46:01;;;;;;;3.40;2.30;;;;;;;9.23;100.00;98373.63;4978272;28;20438;-81
2023/09/24 06:48:29;;;;;;;2.45;2.05;;;;;;;9.35;100.00;98355.22;4980186;28;20436;-81
2023/09/24 06:50:55;;;;;;;2.08;1.88;;;;;;;9.45;100.00;98363.47;4977379;28;20443;-82
2023/09/24 06:53:22;;;;;;;3.10;2.20;;;;;;;9.59;100.00;98365.72;4960550;28;20408;-84
2023/09/24 06:55:48;;;;;;;2.75;2.22;;;;;;;9.73;100.00;98368.22;4977761;28;20491;-83
2023/09/24 06:58:14;;;;;;;2.47;1.95;;;;;;;9.84;100.00;98367.50;4980833;28;20411;-81
2023/09/24 07:00:40;;;;;;;2.22;1.80;;;;;;;9.93;100.00;98364.31;4980285;28;20407;-82
2023/09/24 07:03:06;;;;;;;2.47;2.10;;;;;;;10.01;100.00;98365.84;4978883;28;20877;-81
2023/09/24 07:05:36;;;;;;;3.63;1.98;;;;;;;10.09;100.00;98365.53;4988321;28;20452;-83
2023/09/24 07:08:02;;;;;;;2.65;1.80;;;;;;;10.13;100.00;98369.34;4990634;28;20404;-80
2023/09/24 07:10:29;;;;;;;2.70;1.98;;;;;;;10.18;100.00;98374.81;4981407;28;20400;-80
2023/09/24 07:12:56;;;;;;;2.85;1.80;;;;;;;10.23;100.00;98377.56;4981334;28;20918;-83
2023/09/24 07:15:22;;;;;;;2.67;1.88;;;;;;;10.29;100.00;98375.91;4982457;28;20406;-82
2023/09/24 07:17:48;;;;;;;2.63;2.03;;;;;;;10.35;100.00;98375.78;4988339;28;20407;-81
2023/09/24 07:20:14;;;;;;;4.05;2.20;;;;;;;10.44;100.00;98378.94;4991991;28;20427;-83
2023/09/24 07:22:42;;;;;;;3.30;2.35;;;;;;;10.51;100.00;98384.94;4983580;28;20408;-83
2023/09/24 07:25:11;;;;;;;2.40;2.20;;;;;;;10.60;100.00;98385.44;4980360;28;20412;-83
2023/09/24 07:27:37;;;;;;;3.03;2.22;;;;;;;10.69;100.00;98382.22;4976222;28;20408;-83
2023/09/24 07:30:04;;;;;;;3.60;2.30;;;;;;;10.79;100.00;98382.47;4975623;28;20515;-81
2023/09/24 07:32:30;;;;;;;2.88;2.30;;;;;;;10.92;100.00;98378.78;4977377;28;20411;-83
2023/09/24 07:34:56;;;;;;;2.97;2.30;;;;;;;11.05;100.00;98378.56;4980050;28;20404;-82
2023/09/24 07:37:22;;;;;;;2.92;2.35;;;;;;;11.17;100.00;98384.69;4984427;28;20926;-84
2023/09/24 07:39:50;;;;;;;3.00;2.20;;;;;;;11.30;100.00;98380.19;4987417;28;20427;-83
2023/09/24 07:42:17;;;;;;;3.30;2.23;;;;;;;11.41;100.00;98393.47;4979593;28;20526;-83
2023/09/24 07:44:43;;;;;;;2.58;2.10;;;;;;;11.50;100.00;98384.09;4980407;28;20840;-84
2023/09/24 07:47:09;;;;;;;2.97;1.98;;;;;;;11.60;100.00;98383.50;4982705;28;20416;-82
2023/09/24 07:49:35;;;;;;;2.45;1.90;;;;;;;11.68;100.00;98385.81;4991002;28;20497;-84
2023/09/24 07:52:02;;;;;;;2.60;2.17;;;;;;;11.79;100.00;98392.19;4988192;28;20412;-84
2023/09/24 07:54:28;;;;;;;2.92;2.08;;;;;;;11.91;100.00;98392.94;4988587;28;20408;-83
2023/09/24 07:56:56;;;;;;;1.90;1.70;;;;;;;12.01;100.00;98386.00;5000537;28;20420;-87
2023/09/24 07:59:23;;;;;;;2.55;2.10;;;;;;;12.12;100.00;98389.66;4983916;28;20400;-83
2023/09/24 08:01:49;;;;;;;3.78;2.42;;;;;;;12.23;100.00;98388.00;4988034;28;20460;-83
2023/09/24 08:04:15;;;;;;;3.25;1.90;;;;;;;12.36;100.00;98383.22;4988261;28;20416;-82
2023/09/24 08:06:42;;;;;;;2.35;1.80;;;;;;;12.48;100.00;98385.03;4976710;28;20420;-82
2023/09/24 08:09:09;;;;;;;2.22;1.58;;;;;;;12.59;100.00;98392.13;4976378;28;20423;-83
2023/09/24 08:11:35;;;;;;;2.03;1.60;;;;;;;12.72;100.00;98392.59;4976940;28;20443;-83
2023/09/24 08:14:02;;;;;;;2.08;1.55;;;;;;;12.87;100.00;98394.72;4977589;28;20913;-82
2023/09/24 08:16:28;;;;;;;2.42;1.90;;;;;;;12.99;100.00;98394.66;4977475;28;20800;-82
2023/09/24 08:18:54;;;;;;;2.03;1.50;;;;;;;13.12;100.00;98391.66;4977423;28;20452;-82
2023/09/24 08:21:21;;;;;;;2.65;1.80;;;;;;;13.26;100.00;98392.16;4978058;28;20412;-83
2023/09/24 08:23:47;;;;;;;2.95;1.73;;;;;;;13.40;100.00;98396.09;4977546;28;20400;-83
2023/09/24 08:26:13;;;;;;;3.72;1.63;;;;;;;13.53;100.00;98393.13;4978405;28;20520;-83
2023/09/24 08:28:39;;;;;;;2.45;1.70;;;;;;;13.66;100.00;98390.09;4975465;28;20397;-78
2023/09/24 08:31:11;;;;;;;3.10;2.05;;;;;;;13.78;100.00;98396.09;4978476;28;20460;-82
2023/09/24 08:33:37;;;;;;;4.28;2.13;;;;;;;13.83;100.00;98398.81;4978887;28;20407;-81
2023/09/24 08:36:08;;;;;;;4.53;1.80;;;;;;;13.95;100.00;98401.38;4976949;28;20415;-80
2023/09/24 08:38:34;;;;;;;2.30;1.67;;;;;;;14.03;100.00;98403.59;4978341;28;20408;-78
2023/09/24 08:41:00;;;;;;;2.47;1.60;;;;;;;14.07;100.00;98404.69;4985622;28;20401;-80
2023/09/24 08:43:30;;;;;;;2.80;1.95;;;;;;;14.10;100.00;98406.88;4985172;28;20423;-79
2023/09/24 08:45:57;;;;;;;3.60;1.77;;;;;;;14.17;100.00;98407.50;4978124;28;20424;-78
2023/09/24 08:48:27;;;;;;;2.50;1.85;;;;;;;14.29;100.00;98410.81;4977200;28;20400;-82
2023/09/24 08:50:54;;;;;;;2.20;1.52;;;;;;;14.41;100.00;98410.72;4981572;28;20948;-83
2023/09/24 08:53:22;;;;;;;5.30;2.50;;;;;;;14.29;100.00;98412.66;4981827;28;20460;-81
2023/09/24 08:55:48;;;;;;;4.35;1.90;;;;;;;14.53;100.00;98397.25;4982811;28;20404;-81
2023/09/24 08:58:14;;;;;;;2.70;1.88;;;;;;;14.87;100.00;98409.31;4982050;28;20404;-82
2023/09/24 09:00:42;;;;;;;4.88;2.10;;;;;;;14.90;100.00;98399.97;4981519;28;20404;-82
2023/09/24 09:03:08;;;;;;;4.15;1.63;;;;;;;15.20;100.00;98402.09;4983733;28;20408;-82
2023/09/24 09:05:37;;;;;;;4.10;2.00;;;;;;;15.30;100.00;98399.50;4980845;28;20427;-81
2023/09/24 09:08:04;;;;;;;2.33;1.38;;;;;;;15.38;100.00;98397.16;4985005;28;20454;-79
2023/09/24 09:10:32;;;;;;;2.38;1.30;;;;;;;15.46;100.00;98403.88;4985219;28;20396;-78
2023/09/24 09:13:04;;;;;;;2.47;1.55;;;;;;;15.53;100.00;98391.16;4980997;28;20503;-80
2023/09/24 09:15:30;;;;;;;5.38;2.30;;;;;;;15.46;100.00;98402.03;4975471;28;20404;-81
2023/09/24 09:17:56;;;;;;;3.38;2.00;;;;;;;15.35;100.00;98394.19;4989586;28;20502;-80
2023/09/24 09:20:40;;;;;;;3.85;2.10;;;;;;;15.63;100.00;98395.75;4983018;28;20478;-80
2023/09/24 09:23:12;;;;;;;4.60;2.22;;;;;;;15.59;100.00;98395.44;4983427;28;20788;-79
2023/09/24 09:25:50;;;;;;;4.50;2.20;;;;;;;15.86;100.00;98396.09;4983265;28;20455;-80
2023/09/24 09:28:20;;;;;;;4.65;1.75;;;;;;;15.82;100.00;98400.38;4982801;28;20431;-83
2023/09/24 09:31:01;;;;;;;3.95;1.85;;;;;;;15.95;100.00;98391.06;4982896;28;20412;-79
2023/09/24 09:33:30;;;;;;;5.27;1.97;;;;;;;15.82;100.00;98394.22;5002044;28;20503;-83
2023/09/24 09:35:58;;;;;;;3.05;1.77;;;;;;;16.15;100.00;98385.84;5002143;28;20434;-79
2023/09/24 09:38:25;;;;;;;4.82;1.80;;;;;;;16.33;100.00;98392.53;4992026;28;20876;-81
2023/09/24 09:40:54;;;;;;;3.05;1.58;;;;;;;16.48;100.00;98400.59;4997717;28;20411;-82
2023/09/24 09:43:23;;;;;;;2.45;1.58;;;;;;;16.69;100.00;98392.66;4992314;28;20432;-81
2023/09/24 09:45:52;;;;;;;4.15;1.85;;;;;;;16.68;100.00;98389.19;4983032;28;20436;-81
2023/09/24 09:48:27;;;;;;;2.45;1.25;;;;;;;16.88;100.00;98394.56;4982919;28;20400;-81
2023/09/24 09:50:57;;;;;;;3.50;1.38;;;;;;;16.92;100.00;98392.94;4982821;28;20436;-82
2023/09/24 09:53:31;;;;;;;1.53;1.23;;;;;;;17.05;100.00;98396.97;4983528;28;20467;-82
2023/09/24 09:56:00;;;;;;;2.97;1.60;;;;;;;17.18;100.00;98387.59;4991275;28;20433;-81
2023/09/24 09:58:26;;;;;;;4.45;1.98;;;;;;;16.91;100.00;98386.00;4982533;28;20489;-83
2023/09/24 10:00:53;;;;;;;3.58;1.65;;;;;;;17.23;100.00;98392.94;4983148;28;20408;-81
2023/09/24 10:03:20;;;;;;;3.10;1.42;;;;;;;17.47;100.00;98388.63;4982909;28;20408;-81
2023/09/24 10:05:48;;;;;;;3.08;1.50;;;;;;;17.66;100.00;98386.22;4983741;28;20428;-83
2023/09/24 10:08:40;;;;;;;2.15;1.60;;;;;;;17.85;100.00;98381.84;4984395;28;20411;-81
2023/09/24 10:11:07;;;;;;;3.45;1.75;;;;;;;17.87;100.00;98360.16;4983437;28;20423;-83
2023/09/24 10:13:46;;;;;;;2.50;1.50;;;;;;;17.98;100.00;98381.25;4980136;28;20491;-80
2023/09/24 10:16:32;;;;;;;2.67;1.47;;;;;;;17.92;100.00;98377.00;4981719;28;20487;-80
2023/09/24 10:19:00;;;;;;;7.93;2.15;;;;;;;17.39;100.00;98338.31;4985329;28;20400;-81
2023/09/24 10:21:30;;;;;;;3.28;1.90;;;;;;;17.61;100.00;98346.00;4980852;28;20416;-79
2023/09/24 10:23:58;;;;;;;3.17;1.63;;;;;;;17.65;100.00;98376.56;4980527;28;20404;-80
2023/09/24 10:26:47;;;;;;;3.10;1.80;;;;;;;17.56;100.00;98360.22;4979653;28;20456;-80
2023/09/24 10:29:15;;;;;;;5.75;2.22;;;;;;;17.21;100.00;98342.38;4988095;28;20413;-82
2023/09/24 10:32:11;;;;;;;4.90;2.08;;;;;;;17.42;100.00;98372.56;4985390;28;20408;-80
2023/09/24 10:35:09;;;;;;;3.40;1.73;;;;;;;17.50;100.00;98390.75;4982150;28;20411;-79
2023/09/24 10:37:37;;;;;;;3.47;2.00;;;;;;;17.53;100.00;98395.56;4987676;28;20422;-80
2023/09/24 10:40:09;;;;;;;6.03;2.63;;;;;;;17.03;100.00;98324.19;4990770;28;20980;-81
2023/09/24 10:42:37;;;;;;;6.07;2.53;;;;;;;16.99;100.00;98321.25;4974048;28;20983;-82
2023/09/24 10:45:26;;;;;;;4.53;1.85;;;;;;;16.97;100.00;98328.75;4976135;28;20424;-80
2023/09/24 10:47:52;;;;;;;3.10;1.90;;;;;;;17.19;100.00;98362.44;4976986;28;20824;-80
2023/09/24 10:50:19;;;;;;;2.93;1.50;;;;;;;17.38;100.00;98371.50;4979109;28;20455;-80
2023/09/24 10:52:46;;;;;;;3.85;1.80;;;;;;;17.51;100.00;98365.59;4982289;28;20401;-79
2023/09/24 10:55:15;;;;;;;3.20;1.90;;;;;;;17.65;100.00;98368.53;4980826;28;20770;-78
2023/09/24 10:57:44;;;;;;;3.75;1.70;;;;;;;17.78;100.00;98376.78;4979597;28;20404;-78
2023/09/24 11:00:15;;;;;;;3.35;1.90;;;;;;;17.88;100.00;98354.53;4983131;28;20781;-81
2023/09/24 11:02:42;;;;;;;2.42;1.52;;;;;;;18.10;100.00;98363.00;4976937;28;20764;-79
2023/09/24 11:05:09;;;;;;;3.70;1.70;;;;;;;18.07;100.00;98346.66;4978842;28;20423;-78
2023/09/24 11:07:35;;;;;;;3.40;1.77;;;;;;;18.29;100.00;98363.16;4977966;28;20432;-80
2023/09/24 11:10:02;;;;;;;2.03;1.30;;;;;;;18.41;100.00;98360.16;4978756;28;20459;-83
2023/09/24 11:12:29;;;;;;;4.77;1.80;;;;;;;18.28;100.00;98328.59;4978402;28;20457;-78
2023/09/24 11:14:56;;;;;;;3.33;2.20;;;;;;;18.55;100.00;98355.78;4978931;28;20411;-79
2023/09/24 11:17:23;;;;;;;3.55;1.90;;;;;;;18.71;100.00;98353.81;4978773;28;20429;-80
2023/09/24 11:19:50;;;;;;;2.67;1.70;;;;;;;18.83;100.00;98357.72;4976149;28;20511;-80
2023/09/24 11:22:17;;;;;;;4.03;1.73;;;;;;;18.94;100.00;98353.88;4978301;28;20405;-80
2023/09/24 11:24:44;;;;;;;2.42;1.48;;;;;;;19.04;100.00;98357.56;4980418;28;20431;-81
2023/09/24 11:27:10;;;;;;;3.47;1.80;;;;;;;19.09;100.00;98336.06;4976107;28;20430;-79
2023/09/24 11:29:38;;;;;;;2.10;1.38;;;;;;;19.31;100.00;98339.06;4977117;28;20922;-80
2023/09/24 11:32:05;;;;;;;3.15;1.90;;;;;;;19.21;100.00;98318.47;4978186;28;20416;-81